sensor_id;sensor_type;location;lat;lon;timestamp;pressure;altitude;pressure_sealevel;temperature;humidity
38452;BME280;24231;52.514;13.438;2022-10-22T00:01:56;100581.55;;;15.98;74.68
38452;BME280;24231;52.514;13.438;2022-10-22T00:04:23;100598.64;;;15.23;77.28
38452;BME280;24231;52.514;13.438;2022-10-22T00:06:51;100593.17;;;16.60;73.68
38452;BME280;24231;52.514;13.438;2022-10-22T00:09:18;100586.45;;;16.77;74.15
38452;BME280;24231;52.514;13.438;2022-10-22T00:11:45;100584.30;;;16.16;75.99
38452;BME280;24231;52.514;13.438;2022-10-22T00:14:12;100590.74;;;16.05;76.26
38452;BME280;24231;52.514;13.438;2022-10-22T00:16:40;100591.77;;;16.62;74.07
38452;BME280;24231;52.514;13.438;2022-10-22T00:19:07;100594.17;;;17.09;70.76
38452;BME280;24231;52.514;13.438;2022-10-22T00:21:34;100598.45;;;16.41;74.13
38452;BME280;24231;52.514;13.438;2022-10-22T00:24:02;100594.32;;;15.92;76.48
38452;BME280;24231;52.514;13.438;2022-10-22T00:26:29;100594.46;;;16.03;76.19
38452;BME280;24231;52.514;13.438;2022-10-22T00:28:56;100593.15;;;16.64;75.11
38452;BME280;24231;52.514;13.438;2022-10-22T00:31:22;100579.63;;;16.93;72.86
38452;BME280;24231;52.514;13.438;2022-10-22T00:33:50;100564.92;;;15.32;79.91
38452;BME280;24231;52.514;13.438;2022-10-22T00:36:16;100567.50;;;16.39;75.55
38452;BME280;24231;52.514;13.438;2022-10-22T00:38:44;100573.80;;;16.09;75.94
38452;BME280;24231;52.514;13.438;2022-10-22T00:41:11;100569.52;;;16.45;74.36
38452;BME280;24231;52.514;13.438;2022-10-22T00:43:57;100563.36;;;17.57;70.13
38452;BME280;24231;52.514;13.438;2022-10-22T00:46:25;100563.19;;;17.77;68.06
38452;BME280;24231;52.514;13.438;2022-10-22T00:48:53;100559.11;;;17.74;69.20
38452;BME280;24231;52.514;13.438;2022-10-22T00:51:23;100561.84;;;18.01;66.84
38452;BME280;24231;52.514;13.438;2022-10-22T00:53:54;100565.56;;;17.74;68.31
38452;BME280;24231;52.514;13.438;2022-10-22T00:56:22;100569.37;;;16.08;74.14
38452;BME280;24231;52.514;13.438;2022-10-22T00:58:52;100575.72;;;16.41;73.17
38452;BME280;24231;52.514;13.438;2022-10-22T01:01:25;100583.03;;;16.18;74.59
38452;BME280;24231;52.514;13.438;2022-10-22T01:03:53;100585.65;;;16.56;72.04
38452;BME280;24231;52.514;13.438;2022-10-22T01:06:23;100584.85;;;17.62;69.26
38452;BME280;24231;52.514;13.438;2022-10-22T01:08:59;100596.43;;;17.43;69.68
38452;BME280;24231;52.514;13.438;2022-10-22T01:11:36;100603.46;;;17.00;70.61
38452;BME280;24231;52.514;13.438;2022-10-22T01:14:14;100593.83;;;17.13;69.93
38452;BME280;24231;52.514;13.438;2022-10-22T01:16:47;100594.00;;;17.29;69.20
38452;BME280;24231;52.514;13.438;2022-10-22T01:19:34;100601.01;;;16.79;71.73
38452;BME280;24231;52.514;13.438;2022-10-22T01:22:10;100600.82;;;15.37;77.91
38452;BME280;24231;52.514;13.438;2022-10-22T01:24:52;100594.61;;;15.61;76.39
38452;BME280;24231;52.514;13.438;2022-10-22T01:27:34;100581.46;;;16.09;75.80
38452;BME280;24231;52.514;13.438;2022-10-22T01:30:07;100582.90;;;16.79;71.45
38452;BME280;24231;52.514;13.438;2022-10-22T01:32:38;100584.39;;;16.01;75.76
38452;BME280;24231;52.514;13.438;2022-10-22T01:35:10;100573.24;;;15.77;76.16
38452;BME280;24231;52.514;13.438;2022-10-22T01:37:43;100575.25;;;15.29;79.35
38452;BME280;24231;52.514;13.438;2022-10-22T01:40:13;100575.93;;;15.74;76.02
38452;BME280;24231;52.514;13.438;2022-10-22T01:42:41;100584.09;;;14.71;80.91
38452;BME280;24231;52.514;13.438;2022-10-22T01:45:11;100583.02;;;15.71;78.34
38452;BME280;24231;52.514;13.438;2022-10-22T01:47:46;100573.83;;;15.39;78.53
38452;BME280;24231;52.514;13.438;2022-10-22T01:50:34;100571.77;;;16.26;75.07
38452;BME280;24231;52.514;13.438;2022-10-22T01:53:18;100577.40;;;17.70;69.41
38452;BME280;24231;52.514;13.438;2022-10-22T01:55:56;100582.77;;;16.20;74.36
38452;BME280;24231;52.514;13.438;2022-10-22T01:58:36;100583.60;;;17.22;70.78
38452;BME280;24231;52.514;13.438;2022-10-22T02:01:12;100589.24;;;16.47;72.68
38452;BME280;24231;52.514;13.438;2022-10-22T02:03:47;100592.85;;;17.02;70.22
38452;BME280;24231;52.514;13.438;2022-10-22T02:06:20;100591.87;;;17.26;69.10
38452;BME280;24231;52.514;13.438;2022-10-22T02:08:51;100586.63;;;17.80;67.53
38452;BME280;24231;52.514;13.438;2022-10-22T02:11:19;100591.09;;;16.16;73.03
38452;BME280;24231;52.514;13.438;2022-10-22T02:13:48;100594.70;;;15.82;75.90
38452;BME280;24231;52.514;13.438;2022-10-22T02:16:19;100596.82;;;15.95;76.57
38452;BME280;24231;52.514;13.438;2022-10-22T02:18:51;100600.26;;;14.77;80.28
38452;BME280;24231;52.514;13.438;2022-10-22T02:21:20;100595.02;;;15.02;79.10
38452;BME280;24231;52.514;13.438;2022-10-22T02:23:48;100598.69;;;14.81;80.43
38452;BME280;24231;52.514;13.438;2022-10-22T02:26:20;100587.13;;;16.40;74.21
38452;BME280;24231;52.514;13.438;2022-10-22T02:28:55;100586.67;;;15.67;75.91
38452;BME280;24231;52.514;13.438;2022-10-22T02:31:27;100583.97;;;16.54;72.36
38452;BME280;24231;52.514;13.438;2022-10-22T02:33:58;100579.30;;;17.03;71.30
38452;BME280;24231;52.514;13.438;2022-10-22T02:36:28;100582.13;;;16.52;72.20
38452;BME280;24231;52.514;13.438;2022-10-22T02:38:56;100578.73;;;17.12;70.32
38452;BME280;24231;52.514;13.438;2022-10-22T02:41:25;100585.33;;;16.99;70.90
38452;BME280;24231;52.514;13.438;2022-10-22T02:43:54;100584.96;;;17.36;69.21
38452;BME280;24231;52.514;13.438;2022-10-22T02:46:21;100581.48;;;15.60;74.42
38452;BME280;24231;52.514;13.438;2022-10-22T02:48:49;100587.09;;;16.10;73.65
38452;BME280;24231;52.514;13.438;2022-10-22T02:51:17;100587.61;;;16.15;73.30
38452;BME280;24231;52.514;13.438;2022-10-22T02:53:44;100587.49;;;16.33;72.34
38452;BME280;24231;52.514;13.438;2022-10-22T02:56:11;100594.94;;;16.18;73.80
38452;BME280;24231;52.514;13.438;2022-10-22T02:58:39;100602.55;;;15.86;73.91
38452;BME280;24231;52.514;13.438;2022-10-22T03:01:06;100600.92;;;16.41;72.80
38452;BME280;24231;52.514;13.438;2022-10-22T03:03:34;100603.20;;;15.97;74.59
38452;BME280;24231;52.514;13.438;2022-10-22T03:06:01;100600.39;;;15.29;76.19
38452;BME280;24231;52.514;13.438;2022-10-22T03:08:29;100593.01;;;16.76;70.78
38452;BME280;24231;52.514;13.438;2022-10-22T03:10:56;100587.65;;;16.16;73.88
38452;BME280;24231;52.514;13.438;2022-10-22T03:13:23;100586.85;;;16.85;71.16
38452;BME280;24231;52.514;13.438;2022-10-22T03:15:50;100584.03;;;15.48;75.00
38452;BME280;24231;52.514;13.438;2022-10-22T03:18:18;100578.94;;;16.01;73.16
38452;BME280;24231;52.514;13.438;2022-10-22T03:20:45;100578.70;;;16.53;72.39
38452;BME280;24231;52.514;13.438;2022-10-22T03:23:13;100576.89;;;15.88;73.63
38452;BME280;24231;52.514;13.438;2022-10-22T03:25:43;100571.89;;;17.49;68.68
38452;BME280;24231;52.514;13.438;2022-10-22T03:28:14;100576.51;;;15.74;75.05
38452;BME280;24231;52.514;13.438;2022-10-22T03:30:43;100573.62;;;16.01;73.95
38452;BME280;24231;52.514;13.438;2022-10-22T03:33:10;100576.85;;;16.27;72.54
38452;BME280;24231;52.514;13.438;2022-10-22T03:35:41;100581.55;;;16.66;71.15
38452;BME280;24231;52.514;13.438;2022-10-22T03:38:10;100587.17;;;16.78;70.30
38452;BME280;24231;52.514;13.438;2022-10-22T03:40:38;100584.11;;;17.73;66.76
38452;BME280;24231;52.514;13.438;2022-10-22T03:43:05;100588.57;;;18.13;64.66
38452;BME280;24231;52.514;13.438;2022-10-22T03:45:33;100587.33;;;17.16;67.12
38452;BME280;24231;52.514;13.438;2022-10-22T03:47:59;100585.26;;;16.65;71.01
38452;BME280;24231;52.514;13.438;2022-10-22T03:50:27;100585.95;;;15.11;76.35
38452;BME280;24231;52.514;13.438;2022-10-22T03:52:54;100586.81;;;16.22;73.10
38452;BME280;24231;52.514;13.438;2022-10-22T03:55:21;100588.00;;;17.55;67.70
38452;BME280;24231;52.514;13.438;2022-10-22T03:57:48;100591.18;;;17.06;68.85
38452;BME280;24231;52.514;13.438;2022-10-22T04:00:15;100595.20;;;16.72;70.44
38452;BME280;24231;52.514;13.438;2022-10-22T04:02:42;100597.35;;;16.04;72.81
38452;BME280;24231;52.514;13.438;2022-10-22T04:05:10;100596.22;;;16.60;70.71
38452;BME280;24231;52.514;13.438;2022-10-22T04:07:37;100599.10;;;16.16;72.96
38452;BME280;24231;52.514;13.438;2022-10-22T04:10:05;100603.04;;;17.02;69.11
38452;BME280;24231;52.514;13.438;2022-10-22T04:12:32;100604.92;;;16.59;70.87
38452;BME280;24231;52.514;13.438;2022-10-22T04:15:00;100611.02;;;15.83;72.81
38452;BME280;24231;52.514;13.438;2022-10-22T04:17:33;100613.00;;;16.62;70.94
38452;BME280;24231;52.514;13.438;2022-10-22T04:20:01;100619.40;;;17.02;68.51
38452;BME280;24231;52.514;13.438;2022-10-22T04:22:29;100620.36;;;16.77;69.34
38452;BME280;24231;52.514;13.438;2022-10-22T04:24:56;100623.76;;;15.25;75.82
38452;BME280;24231;52.514;13.438;2022-10-22T04:27:24;100629.87;;;16.88;70.22
38452;BME280;24231;52.514;13.438;2022-10-22T04:29:51;100630.76;;;16.38;71.16
38452;BME280;24231;52.514;13.438;2022-10-22T04:32:18;100632.11;;;15.80;73.48
38452;BME280;24231;52.514;13.438;2022-10-22T04:34:45;100639.33;;;14.81;78.12
38452;BME280;24231;52.514;13.438;2022-10-22T04:37:12;100638.05;;;14.72;78.65
38452;BME280;24231;52.514;13.438;2022-10-22T04:39:40;100632.61;;;15.40;75.92
38452;BME280;24231;52.514;13.438;2022-10-22T04:42:07;100635.99;;;15.02;77.30
38452;BME280;24231;52.514;13.438;2022-10-22T04:44:34;100629.12;;;16.24;72.36
38452;BME280;24231;52.514;13.438;2022-10-22T04:47:01;100628.93;;;15.11;77.34
38452;BME280;24231;52.514;13.438;2022-10-22T04:49:29;100623.65;;;16.72;70.74
38452;BME280;24231;52.514;13.438;2022-10-22T04:51:56;100623.13;;;16.52;71.64
38452;BME280;24231;52.514;13.438;2022-10-22T04:54:23;100624.09;;;16.17;73.09
38452;BME280;24231;52.514;13.438;2022-10-22T04:56:49;100621.75;;;15.38;76.64
38452;BME280;24231;52.514;13.438;2022-10-22T04:59:16;100615.01;;;16.36;71.32
38452;BME280;24231;52.514;13.438;2022-10-22T05:01:44;100613.65;;;16.63;70.15
38452;BME280;24231;52.514;13.438;2022-10-22T05:04:14;100619.67;;;17.15;68.28
38452;BME280;24231;52.514;13.438;2022-10-22T05:06:41;100618.95;;;17.42;67.13
38452;BME280;24231;52.514;13.438;2022-10-22T05:09:11;100618.11;;;17.40;66.25
38452;BME280;24231;52.514;13.438;2022-10-22T05:11:40;100614.15;;;17.54;65.38
38452;BME280;24231;52.514;13.438;2022-10-22T05:14:09;100616.05;;;15.37;74.12
38452;BME280;24231;52.514;13.438;2022-10-22T05:16:37;100614.86;;;15.81;72.66
38452;BME280;24231;52.514;13.438;2022-10-22T05:19:05;100617.02;;;17.30;67.01
38452;BME280;24231;52.514;13.438;2022-10-22T05:21:33;100619.57;;;17.38;65.30
38452;BME280;24231;52.514;13.438;2022-10-22T05:24:00;100624.36;;;17.51;65.03
38452;BME280;24231;52.514;13.438;2022-10-22T05:26:28;100627.93;;;17.56;65.86
38452;BME280;24231;52.514;13.438;2022-10-22T05:28:56;100631.12;;;16.37;69.79
38452;BME280;24231;52.514;13.438;2022-10-22T05:31:23;100632.64;;;16.11;71.32
38452;BME280;24231;52.514;13.438;2022-10-22T05:33:50;100630.87;;;16.16;71.03
38452;BME280;24231;52.514;13.438;2022-10-22T05:36:22;100627.45;;;16.54;69.39
38452;BME280;24231;52.514;13.438;2022-10-22T05:38:49;100630.24;;;16.13;70.25
38452;BME280;24231;52.514;13.438;2022-10-22T05:41:20;100628.00;;;17.18;66.40
38452;BME280;24231;52.514;13.438;2022-10-22T05:43:48;100629.38;;;16.78;67.19
38452;BME280;24231;52.514;13.438;2022-10-22T05:46:17;100628.06;;;16.42;69.24
38452;BME280;24231;52.514;13.438;2022-10-22T05:48:48;100636.01;;;16.86;67.11
38452;BME280;24231;52.514;13.438;2022-10-22T05:51:15;100639.25;;;16.09;69.90
38452;BME280;24231;52.514;13.438;2022-10-22T05:53:43;100639.80;;;17.67;64.61
38452;BME280;24231;52.514;13.438;2022-10-22T05:56:12;100649.01;;;16.82;68.05
38452;BME280;24231;52.514;13.438;2022-10-22T05:58:41;100652.94;;;16.20;70.04
38452;BME280;24231;52.514;13.438;2022-10-22T06:01:11;100655.04;;;17.14;67.15
38452;BME280;24231;52.514;13.438;2022-10-22T06:03:40;100656.16;;;17.46;65.30
38452;BME280;24231;52.514;13.438;2022-10-22T06:06:16;100654.38;;;17.83;64.02
38452;BME280;24231;52.514;13.438;2022-10-22T06:08:46;100652.25;;;16.70;67.75
38452;BME280;24231;52.514;13.438;2022-10-22T06:11:14;100650.74;;;16.24;69.28
38452;BME280;24231;52.514;13.438;2022-10-22T06:13:41;100649.16;;;16.17;70.03
38452;BME280;24231;52.514;13.438;2022-10-22T06:16:08;100647.64;;;16.19;69.02
38452;BME280;24231;52.514;13.438;2022-10-22T06:18:36;100652.60;;;17.36;65.95
38452;BME280;24231;52.514;13.438;2022-10-22T06:21:04;100654.78;;;15.96;69.83
38452;BME280;24231;52.514;13.438;2022-10-22T06:23:32;100660.48;;;15.20;74.51
38452;BME280;24231;52.514;13.438;2022-10-22T06:26:00;100664.35;;;15.79;72.44
38452;BME280;24231;52.514;13.438;2022-10-22T06:28:28;100670.23;;;16.79;68.30
38452;BME280;24231;52.514;13.438;2022-10-22T06:30:56;100673.19;;;16.71;67.65
38452;BME280;24231;52.514;13.438;2022-10-22T06:33:24;100674.41;;;17.09;67.45
38452;BME280;24231;52.514;13.438;2022-10-22T06:35:51;100681.16;;;15.34;73.06
38452;BME280;24231;52.514;13.438;2022-10-22T06:38:18;100679.81;;;16.26;71.17
38452;BME280;24231;52.514;13.438;2022-10-22T06:40:45;100683.33;;;17.49;65.64
38452;BME280;24231;52.514;13.438;2022-10-22T06:43:13;100682.24;;;18.00;64.45
38452;BME280;24231;52.514;13.438;2022-10-22T06:45:40;100687.25;;;16.98;67.28
38452;BME280;24231;52.514;13.438;2022-10-22T06:48:08;100686.43;;;17.65;64.09
38452;BME280;24231;52.514;13.438;2022-10-22T06:50:34;100693.68;;;17.62;64.21
38452;BME280;24231;52.514;13.438;2022-10-22T06:53:02;100699.50;;;17.65;64.59
38452;BME280;24231;52.514;13.438;2022-10-22T06:55:29;100701.22;;;16.70;68.58
38452;BME280;24231;52.514;13.438;2022-10-22T06:57:56;100702.40;;;16.41;68.53
38452;BME280;24231;52.514;13.438;2022-10-22T07:00:23;100699.39;;;16.63;69.33
38452;BME280;24231;52.514;13.438;2022-10-22T07:02:51;100705.82;;;15.02;74.71
38452;BME280;24231;52.514;13.438;2022-10-22T07:05:18;100704.12;;;14.67;77.87
38452;BME280;24231;52.514;13.438;2022-10-22T07:07:45;100704.08;;;15.01;76.87
38452;BME280;24231;52.514;13.438;2022-10-22T07:10:12;100706.79;;;14.95;78.70
38452;BME280;24231;52.514;13.438;2022-10-22T07:12:39;100707.47;;;14.43;80.38
38452;BME280;24231;52.514;13.438;2022-10-22T07:15:07;100713.42;;;15.02;77.31
38452;BME280;24231;52.514;13.438;2022-10-22T07:17:34;100713.85;;;14.37;80.76
38452;BME280;24231;52.514;13.438;2022-10-22T07:20:02;100712.35;;;14.37;81.25
38452;BME280;24231;52.514;13.438;2022-10-22T07:22:30;100713.61;;;14.17;82.30
38452;BME280;24231;52.514;13.438;2022-10-22T07:24:57;100720.26;;;14.88;77.17
38452;BME280;24231;52.514;13.438;2022-10-22T07:27:24;100721.62;;;14.65;78.68
38452;BME280;24231;52.514;13.438;2022-10-22T07:29:51;100725.24;;;15.10;76.80
38452;BME280;24231;52.514;13.438;2022-10-22T07:32:18;100725.76;;;15.47;75.53
38452;BME280;24231;52.514;13.438;2022-10-22T07:34:45;100726.16;;;15.75;73.91
38452;BME280;24231;52.514;13.438;2022-10-22T07:37:13;100720.89;;;17.22;68.00
38452;BME280;24231;52.514;13.438;2022-10-22T07:39:39;100725.32;;;16.56;70.15
38452;BME280;24231;52.514;13.438;2022-10-22T07:42:06;100733.59;;;17.68;66.97
38452;BME280;24231;52.514;13.438;2022-10-22T07:44:33;100739.86;;;16.74;69.33
38452;BME280;24231;52.514;13.438;2022-10-22T07:47:01;100754.36;;;17.27;68.88
38452;BME280;24231;52.514;13.438;2022-10-22T07:49:28;100764.42;;;17.04;70.67
38452;BME280;24231;52.514;13.438;2022-10-22T07:51:55;100764.68;;;16.27;72.01
38452;BME280;24231;52.514;13.438;2022-10-22T07:54:22;100763.95;;;16.69;71.34
38452;BME280;24231;52.514;13.438;2022-10-22T07:56:49;100765.06;;;17.18;69.29
38452;BME280;24231;52.514;13.438;2022-10-22T07:59:17;100765.53;;;16.67;71.36
38452;BME280;24231;52.514;13.438;2022-10-22T08:01:44;100762.03;;;16.97;70.04
38452;BME280;24231;52.514;13.438;2022-10-22T08:04:11;100766.03;;;15.92;72.92
38452;BME280;24231;52.514;13.438;2022-10-22T08:06:39;100766.03;;;17.47;67.97
38452;BME280;24231;52.514;13.438;2022-10-22T08:09:06;100772.29;;;16.89;69.78
38452;BME280;24231;52.514;13.438;2022-10-22T08:11:34;100772.27;;;17.56;66.94
38452;BME280;24231;52.514;13.438;2022-10-22T08:14:01;100773.64;;;16.86;69.89
38452;BME280;24231;52.514;13.438;2022-10-22T08:16:29;100778.10;;;15.28;75.46
38452;BME280;24231;52.514;13.438;2022-10-22T08:18:56;100778.85;;;15.88;74.02
38452;BME280;24231;52.514;13.438;2022-10-22T08:21:24;100770.61;;;16.57;72.64
38452;BME280;24231;52.514;13.438;2022-10-22T08:23:51;100772.50;;;15.89;73.79
38452;BME280;24231;52.514;13.438;2022-10-22T08:26:18;100777.51;;;15.79;74.52
38452;BME280;24231;52.514;13.438;2022-10-22T08:28:46;100768.07;;;17.45;68.95
38452;BME280;24231;52.514;13.438;2022-10-22T08:31:13;100775.12;;;15.87;73.46
38452;BME280;24231;52.514;13.438;2022-10-22T08:33:40;100780.37;;;16.01;73.55
38452;BME280;24231;52.514;13.438;2022-10-22T08:36:08;100780.68;;;17.72;67.52
38452;BME280;24231;52.514;13.438;2022-10-22T08:38:35;100791.21;;;15.34;76.00
38452;BME280;24231;52.514;13.438;2022-10-22T08:41:08;100792.36;;;16.43;72.82
38452;BME280;24231;52.514;13.438;2022-10-22T08:43:46;100793.86;;;17.37;68.86
38452;BME280;24231;52.514;13.438;2022-10-22T08:46:33;100797.12;;;17.03;70.53
38452;BME280;24231;52.514;13.438;2022-10-22T08:49:11;100802.47;;;15.74;74.97
38452;BME280;24231;52.514;13.438;2022-10-22T08:51:39;100796.88;;;16.77;71.26
38452;BME280;24231;52.514;13.438;2022-10-22T08:54:18;100802.41;;;16.24;73.28
38452;BME280;24231;52.514;13.438;2022-10-22T08:56:58;100805.42;;;15.34;76.87
38452;BME280;24231;52.514;13.438;2022-10-22T08:59:35;100804.02;;;17.21;70.75
38452;BME280;24231;52.514;13.438;2022-10-22T09:02:20;100807.16;;;16.69;72.26
38452;BME280;24231;52.514;13.438;2022-10-22T09:04:55;100817.82;;;16.15;73.46
38452;BME280;24231;52.514;13.438;2022-10-22T09:07:28;100811.79;;;16.68;71.65
38452;BME280;24231;52.514;13.438;2022-10-22T09:09:57;100814.63;;;17.25;70.27
38452;BME280;24231;52.514;13.438;2022-10-22T09:12:26;100819.67;;;16.02;74.33
38452;BME280;24231;52.514;13.438;2022-10-22T09:14:53;100814.52;;;17.08;70.29
38452;BME280;24231;52.514;13.438;2022-10-22T09:17:27;100815.96;;;18.07;66.46
38452;BME280;24231;52.514;13.438;2022-10-22T09:20:03;100817.32;;;17.04;69.61
38452;BME280;24231;52.514;13.438;2022-10-22T09:22:38;100821.65;;;17.47;68.82
38452;BME280;24231;52.514;13.438;2022-10-22T09:25:16;100820.44;;;17.18;69.62
38452;BME280;24231;52.514;13.438;2022-10-22T09:27:45;100818.14;;;16.80;70.42
38452;BME280;24231;52.514;13.438;2022-10-22T09:30:15;100816.06;;;17.88;68.60
38452;BME280;24231;52.514;13.438;2022-10-22T09:32:43;100815.98;;;19.28;62.62
38452;BME280;24231;52.514;13.438;2022-10-22T09:35:12;100818.27;;;19.17;62.71
38452;BME280;24231;52.514;13.438;2022-10-22T09:37:48;100825.58;;;19.63;61.22
38452;BME280;24231;52.514;13.438;2022-10-22T09:40:16;100828.78;;;20.08;59.76
38452;BME280;24231;52.514;13.438;2022-10-22T09:42:45;100829.21;;;19.12;62.73
38452;BME280;24231;52.514;13.438;2022-10-22T09:45:18;100832.31;;;18.70;63.64
38452;BME280;24231;52.514;13.438;2022-10-22T09:47:46;100835.54;;;20.13;59.33
38452;BME280;24231;52.514;13.438;2022-10-22T09:50:21;100835.34;;;19.96;59.58
38452;BME280;24231;52.514;13.438;2022-10-22T09:52:58;100838.26;;;20.36;58.30
38452;BME280;24231;52.514;13.438;2022-10-22T09:55:26;100836.78;;;20.87;56.97
38452;BME280;24231;52.514;13.438;2022-10-22T09:57:55;100842.87;;;19.02;63.39
38452;BME280;24231;52.514;13.438;2022-10-22T10:00:24;100841.03;;;19.19;62.94
38452;BME280;24231;52.514;13.438;2022-10-22T10:02:54;100843.29;;;20.21;60.31
38452;BME280;24231;52.514;13.438;2022-10-22T10:05:26;100843.81;;;18.76;64.36
38452;BME280;24231;52.514;13.438;2022-10-22T10:07:54;100842.27;;;19.07;63.36
38452;BME280;24231;52.514;13.438;2022-10-22T10:10:28;100844.56;;;19.78;61.37
38452;BME280;24231;52.514;13.438;2022-10-22T10:13:07;100843.30;;;19.79;60.96
38452;BME280;24231;52.514;13.438;2022-10-22T10:15:45;100844.38;;;20.04;59.62
38452;BME280;24231;52.514;13.438;2022-10-22T10:18:26;100843.75;;;18.95;63.06
38452;BME280;24231;52.514;13.438;2022-10-22T10:21:04;100846.86;;;18.65;65.02
38452;BME280;24231;52.514;13.438;2022-10-22T10:23:44;100847.56;;;19.10;63.79
38452;BME280;24231;52.514;13.438;2022-10-22T10:26:19;100846.33;;;20.06;60.25
38452;BME280;24231;52.514;13.438;2022-10-22T10:28:59;100843.67;;;19.14;63.13
38452;BME280;24231;52.514;13.438;2022-10-22T10:31:40;100846.73;;;20.43;58.50
38452;BME280;24231;52.514;13.438;2022-10-22T10:34:20;100846.12;;;20.66;58.18
38452;BME280;24231;52.514;13.438;2022-10-22T10:36:58;100848.86;;;20.07;59.03
38452;BME280;24231;52.514;13.438;2022-10-22T10:39:33;100846.09;;;19.58;61.09
38452;BME280;24231;52.514;13.438;2022-10-22T10:42:09;100846.49;;;19.90;60.80
38452;BME280;24231;52.514;13.438;2022-10-22T10:44:59;100845.44;;;20.66;58.28
38452;BME280;24231;52.514;13.438;2022-10-22T10:47:44;100840.33;;;20.97;56.15
38452;BME280;24231;52.514;13.438;2022-10-22T10:50:19;100838.79;;;20.68;57.25
38452;BME280;24231;52.514;13.438;2022-10-22T10:53:13;100837.32;;;18.84;63.45
38452;BME280;24231;52.514;13.438;2022-10-22T10:55:55;100836.21;;;20.46;58.85
38452;BME280;24231;52.514;13.438;2022-10-22T10:58:32;100843.54;;;20.35;58.59
38452;BME280;24231;52.514;13.438;2022-10-22T11:01:08;100848.86;;;20.53;58.50
38452;BME280;24231;52.514;13.438;2022-10-22T11:03:47;100850.53;;;20.79;57.79
38452;BME280;24231;52.514;13.438;2022-10-22T11:06:21;100850.18;;;20.89;57.63
38452;BME280;24231;52.514;13.438;2022-10-22T11:08:53;100853.25;;;19.72;61.83
38452;BME280;24231;52.514;13.438;2022-10-22T11:11:28;100849.96;;;20.13;60.73
38452;BME280;24231;52.514;13.438;2022-10-22T11:14:04;100843.20;;;20.94;57.90
38452;BME280;24231;52.514;13.438;2022-10-22T11:16:41;100844.60;;;20.61;59.04
38452;BME280;24231;52.514;13.438;2022-10-22T11:19:14;100841.91;;;20.12;60.58
38452;BME280;24231;52.514;13.438;2022-10-22T11:21:50;100843.56;;;19.98;61.27
38452;BME280;24231;52.514;13.438;2022-10-22T11:24:22;100844.69;;;20.57;59.39
38452;BME280;24231;52.514;13.438;2022-10-22T11:26:55;100844.95;;;20.70;58.72
38452;BME280;24231;52.514;13.438;2022-10-22T11:29:27;100841.91;;;20.69;58.09
38452;BME280;24231;52.514;13.438;2022-10-22T11:31:56;100838.76;;;20.74;58.49
38452;BME280;24231;52.514;13.438;2022-10-22T11:34:27;100841.56;;;20.64;59.10
38452;BME280;24231;52.514;13.438;2022-10-22T11:36:57;100836.21;;;21.71;55.73
38452;BME280;24231;52.514;13.438;2022-10-22T11:39:29;100837.13;;;21.79;55.17
38452;BME280;24231;52.514;13.438;2022-10-22T11:41:58;100843.48;;;20.54;58.26
38452;BME280;24231;52.514;13.438;2022-10-22T11:44:27;100839.57;;;21.51;55.96
38452;BME280;24231;52.514;13.438;2022-10-22T11:46:56;100840.34;;;22.00;54.22
38452;BME280;24231;52.514;13.438;2022-10-22T11:49:26;100842.05;;;21.52;55.98
38452;BME280;24231;52.514;13.438;2022-10-22T11:52:20;100840.92;;;22.07;54.13
38452;BME280;24231;52.514;13.438;2022-10-22T11:54:47;100842.17;;;21.86;54.12
38452;BME280;24231;52.514;13.438;2022-10-22T11:57:19;100841.74;;;21.42;57.17
38452;BME280;24231;52.514;13.438;2022-10-22T11:59:49;100846.79;;;20.98;58.08
38452;BME280;24231;52.514;13.438;2022-10-22T12:02:33;100846.85;;;20.19;60.14
38452;BME280;24231;52.514;13.438;2022-10-22T12:05:34;100840.57;;;21.15;57.14
38452;BME280;24231;52.514;13.438;2022-10-22T12:08:14;100840.53;;;21.15;56.40
38452;BME280;24231;52.514;13.438;2022-10-22T12:10:57;100840.34;;;21.40;55.64
38452;BME280;24231;52.514;13.438;2022-10-22T12:13:28;100840.45;;;21.56;55.53
38452;BME280;24231;52.514;13.438;2022-10-22T12:15:58;100845.83;;;20.09;59.75
38452;BME280;24231;52.514;13.438;2022-10-22T12:18:34;100843.98;;;19.66;61.61
38452;BME280;24231;52.514;13.438;2022-10-22T12:21:10;100846.93;;;20.51;59.54
38452;BME280;24231;52.514;13.438;2022-10-22T12:23:38;100846.09;;;19.80;61.83
38452;BME280;24231;52.514;13.438;2022-10-22T12:26:05;100848.97;;;19.67;62.18
38452;BME280;24231;52.514;13.438;2022-10-22T12:28:46;100850.47;;;19.82;61.23
38452;BME280;24231;52.514;13.438;2022-10-22T12:31:15;100851.31;;;18.99;64.57
38452;BME280;24231;52.514;13.438;2022-10-22T12:33:42;100847.12;;;19.06;64.26
38452;BME280;24231;52.514;13.438;2022-10-22T12:36:15;100848.38;;;19.80;60.94
38452;BME280;24231;52.514;13.438;2022-10-22T12:38:45;100848.17;;;20.44;58.76
38452;BME280;24231;52.514;13.438;2022-10-22T12:41:12;100845.45;;;21.05;56.52
38452;BME280;24231;52.514;13.438;2022-10-22T12:43:40;100848.52;;;20.16;59.72
38452;BME280;24231;52.514;13.438;2022-10-22T12:46:11;100847.58;;;19.40;62.61
38452;BME280;24231;52.514;13.438;2022-10-22T12:48:39;100850.25;;;18.24;67.27
38452;BME280;24231;52.514;13.438;2022-10-22T12:51:13;100845.34;;;19.16;64.25
38452;BME280;24231;52.514;13.438;2022-10-22T12:53:44;100844.86;;;19.19;62.94
38452;BME280;24231;52.514;13.438;2022-10-22T12:56:14;100846.55;;;20.29;58.89
38452;BME280;24231;52.514;13.438;2022-10-22T12:58:44;100846.24;;;20.11;59.25